sensor_id;sensor_type;location;lat;lon;timestamp;P1;durP1;ratioP1;P2;durP2;ratioP2
11709;SDS011;5911;51.036;6.972;2022-12-24T00:01:57;14.90;;;4.23;;
11709;SDS011;5911;51.036;6.972;2022-12-24T00:04:25;15.07;;;3.70;;
11709;SDS011;5911;51.036;6.972;2022-12-24T00:06:53;20.60;;;4.93;;
11709;SDS011;5911;51.036;6.972;2022-12-24T00:09:22;28.07;;;5.43;;
11709;SDS011;5911;51.036;6.972;2022-12-24T00:11:50;23.07;;;5.40;;
11709;SDS011;5911;51.036;6.972;2022-12-24T00:14:18;20.90;;;4.43;;
11709;SDS011;5911;51.036;6.972;2022-12-24T00:16:46;14.60;;;4.40;;
11709;SDS011;5911;51.036;6.972;2022-12-24T00:19:13;21.97;;;5.00;;
11709;SDS011;5911;51.036;6.972;2022-12-24T00:21:41;19.73;;;5.37;;
11709;SDS011;5911;51.036;6.972;2022-12-24T00:24:09;23.40;;;5.13;;
11709;SDS011;5911;51.036;6.972;2022-12-24T00:26:38;15.23;;;4.10;;
11709;SDS011;5911;51.036;6.972;2022-12-24T00:29:06;16.17;;;4.13;;
11709;SDS011;5911;51.036;6.972;2022-12-24T00:31:33;22.23;;;4.87;;
11709;SDS011;5911;51.036;6.972;2022-12-24T00:34:01;17.37;;;3.97;;
11709;SDS011;5911;51.036;6.972;2022-12-24T00:36:29;19.70;;;4.70;;
11709;SDS011;5911;51.036;6.972;2022-12-24T00:38:57;16.57;;;4.30;;
11709;SDS011;5911;51.036;6.972;2022-12-24T00:41:25;17.27;;;4.30;;
11709;SDS011;5911;51.036;6.972;2022-12-24T00:43:56;19.77;;;4.63;;
11709;SDS011;5911;51.036;6.972;2022-12-24T00:46:26;20.40;;;4.20;;
11709;SDS011;5911;51.036;6.972;2022-12-24T00:48:55;18.07;;;4.13;;
11709;SDS011;5911;51.036;6.972;2022-12-24T00:51:23;16.07;;;4.67;;
11709;SDS011;5911;51.036;6.972;2022-12-24T00:53:51;23.70;;;5.40;;
11709;SDS011;5911;51.036;6.972;2022-12-24T00:56:20;23.63;;;5.13;;
11709;SDS011;5911;51.036;6.972;2022-12-24T00:58:48;19.70;;;4.27;;
11709;SDS011;5911;51.036;6.972;2022-12-24T01:01:17;18.20;;;4.50;;
11709;SDS011;5911;51.036;6.972;2022-12-24T01:03:45;20.87;;;4.80;;
11709;SDS011;5911;51.036;6.972;2022-12-24T01:06:14;19.13;;;4.13;;
11709;SDS011;5911;51.036;6.972;2022-12-24T01:08:42;17.40;;;4.30;;
11709;SDS011;5911;51.036;6.972;2022-12-24T01:11:11;19.27;;;4.23;;
11709;SDS011;5911;51.036;6.972;2022-12-24T01:13:39;19.23;;;4.50;;
11709;SDS011;5911;51.036;6.972;2022-12-24T01:16:12;23.87;;;5.23;;
11709;SDS011;5911;51.036;6.972;2022-12-24T01:18:43;15.90;;;4.20;;
11709;SDS011;5911;51.036;6.972;2022-12-24T01:21:11;17.20;;;4.00;;
11709;SDS011;5911;51.036;6.972;2022-12-24T01:23:38;16.97;;;4.40;;
11709;SDS011;5911;51.036;6.972;2022-12-24T01:26:06;21.03;;;4.30;;
11709;SDS011;5911;51.036;6.972;2022-12-24T01:28:34;19.93;;;5.23;;
11709;SDS011;5911;51.036;6.972;2022-12-24T01:31:02;18.50;;;3.93;;
11709;SDS011;5911;51.036;6.972;2022-12-24T01:33:36;15.23;;;3.80;;
11709;SDS011;5911;51.036;6.972;2022-12-24T01:36:05;19.80;;;4.97;;
11709;SDS011;5911;51.036;6.972;2022-12-24T01:38:33;17.50;;;4.37;;
11709;SDS011;5911;51.036;6.972;2022-12-24T01:41:01;17.87;;;4.17;;
11709;SDS011;5911;51.036;6.972;2022-12-24T01:43:46;18.07;;;4.33;;
11709;SDS011;5911;51.036;6.972;2022-12-24T01:46:15;19.83;;;3.97;;
11709;SDS011;5911;51.036;6.972;2022-12-24T01:48:49;21.67;;;4.20;;
11709;SDS011;5911;51.036;6.972;2022-12-24T01:51:23;17.67;;;4.37;;
11709;SDS011;5911;51.036;6.972;2022-12-24T01:53:56;20.17;;;4.93;;
11709;SDS011;5911;51.036;6.972;2022-12-24T01:56:26;17.60;;;3.77;;
11709;SDS011;5911;51.036;6.972;2022-12-24T01:58:59;16.50;;;4.03;;
11709;SDS011;5911;51.036;6.972;2022-12-24T02:01:31;16.57;;;4.23;;
11709;SDS011;5911;51.036;6.972;2022-12-24T02:04:00;13.13;;;3.53;;
11709;SDS011;5911;51.036;6.972;2022-12-24T02:06:33;20.57;;;3.83;;
11709;SDS011;5911;51.036;6.972;2022-12-24T02:09:01;14.90;;;4.77;;
11709;SDS011;5911;51.036;6.972;2022-12-24T02:11:29;13.60;;;3.80;;
11709;SDS011;5911;51.036;6.972;2022-12-24T02:13:57;12.47;;;3.67;;
11709;SDS011;5911;51.036;6.972;2022-12-24T02:16:30;15.07;;;3.80;;
11709;SDS011;5911;51.036;6.972;2022-12-24T02:19:12;15.00;;;3.80;;
11709;SDS011;5911;51.036;6.972;2022-12-24T02:22:04;18.97;;;4.27;;
11709;SDS011;5911;51.036;6.972;2022-12-24T02:24:48;19.57;;;4.47;;
11709;SDS011;5911;51.036;6.972;2022-12-24T02:27:31;16.57;;;3.80;;
11709;SDS011;5911;51.036;6.972;2022-12-24T02:30:14;15.90;;;4.27;;
11709;SDS011;5911;51.036;6.972;2022-12-24T02:32:48;14.10;;;4.23;;
11709;SDS011;5911;51.036;6.972;2022-12-24T02:35:26;21.03;;;4.23;;
11709;SDS011;5911;51.036;6.972;2022-12-24T02:38:00;20.73;;;4.63;;
11709;SDS011;5911;51.036;6.972;2022-12-24T02:40:33;19.47;;;4.33;;
11709;SDS011;5911;51.036;6.972;2022-12-24T02:43:07;19.87;;;4.10;;
11709;SDS011;5911;51.036;6.972;2022-12-24T02:45:40;18.80;;;4.83;;
11709;SDS011;5911;51.036;6.972;2022-12-24T02:48:14;25.73;;;4.60;;
11709;SDS011;5911;51.036;6.972;2022-12-24T02:50:54;19.00;;;4.27;;
11709;SDS011;5911;51.036;6.972;2022-12-24T02:53:27;17.83;;;4.80;;
11709;SDS011;5911;51.036;6.972;2022-12-24T02:55:58;17.03;;;4.70;;
11709;SDS011;5911;51.036;6.972;2022-12-24T02:58:50;16.67;;;4.43;;
11709;SDS011;5911;51.036;6.972;2022-12-24T03:01:30;19.57;;;4.60;;
11709;SDS011;5911;51.036;6.972;2022-12-24T03:04:07;21.37;;;4.43;;
11709;SDS011;5911;51.036;6.972;2022-12-24T03:06:42;19.70;;;3.80;;
11709;SDS011;5911;51.036;6.972;2022-12-24T03:09:18;16.83;;;4.00;;
11709;SDS011;5911;51.036;6.972;2022-12-24T03:11:54;17.13;;;5.07;;
11709;SDS011;5911;51.036;6.972;2022-12-24T03:14:25;16.57;;;3.80;;
11709;SDS011;5911;51.036;6.972;2022-12-24T03:16:56;24.30;;;4.40;;
11709;SDS011;5911;51.036;6.972;2022-12-24T03:19:25;18.00;;;4.30;;
11709;SDS011;5911;51.036;6.972;2022-12-24T03:21:55;18.63;;;4.03;;
11709;SDS011;5911;51.036;6.972;2022-12-24T03:24:26;15.50;;;4.10;;
11709;SDS011;5911;51.036;6.972;2022-12-24T03:26:54;17.00;;;3.53;;
11709;SDS011;5911;51.036;6.972;2022-12-24T03:29:22;17.30;;;4.40;;
11709;SDS011;5911;51.036;6.972;2022-12-24T03:31:51;15.03;;;4.27;;
11709;SDS011;5911;51.036;6.972;2022-12-24T03:34:26;14.43;;;3.67;;
11709;SDS011;5911;51.036;6.972;2022-12-24T03:36:54;12.90;;;3.03;;
11709;SDS011;5911;51.036;6.972;2022-12-24T03:39:22;13.73;;;3.60;;
11709;SDS011;5911;51.036;6.972;2022-12-24T03:41:50;15.10;;;3.83;;
11709;SDS011;5911;51.036;6.972;2022-12-24T03:44:18;12.57;;;3.13;;
11709;SDS011;5911;51.036;6.972;2022-12-24T03:46:45;10.27;;;2.83;;
11709;SDS011;5911;51.036;6.972;2022-12-24T03:49:13;12.33;;;3.00;;
11709;SDS011;5911;51.036;6.972;2022-12-24T03:51:42;7.57;;;2.50;;
11709;SDS011;5911;51.036;6.972;2022-12-24T03:54:10;9.40;;;3.67;;
11709;SDS011;5911;51.036;6.972;2022-12-24T03:56:38;12.40;;;2.80;;
11709;SDS011;5911;51.036;6.972;2022-12-24T03:59:06;7.47;;;2.23;;
11709;SDS011;5911;51.036;6.972;2022-12-24T04:01:34;5.43;;;2.20;;
11709;SDS011;5911;51.036;6.972;2022-12-24T04:04:02;9.03;;;2.27;;
11709;SDS011;5911;51.036;6.972;2022-12-24T04:06:29;11.27;;;2.70;;
11709;SDS011;5911;51.036;6.972;2022-12-24T04:08:59;5.83;;;2.60;;
11709;SDS011;5911;51.036;6.972;2022-12-24T04:11:30;7.57;;;2.40;;
11709;SDS011;5911;51.036;6.972;2022-12-24T04:13:59;7.43;;;2.20;;
11709;SDS011;5911;51.036;6.972;2022-12-24T04:16:26;10.90;;;2.47;;
11709;SDS011;5911;51.036;6.972;2022-12-24T04:18:54;7.37;;;1.83;;
11709;SDS011;5911;51.036;6.972;2022-12-24T04:21:22;6.40;;;2.00;;
11709;SDS011;5911;51.036;6.972;2022-12-24T04:23:50;6.43;;;2.40;;
11709;SDS011;5911;51.036;6.972;2022-12-24T04:26:19;8.23;;;2.33;;
11709;SDS011;5911;51.036;6.972;2022-12-24T04:28:47;7.50;;;1.93;;
11709;SDS011;5911;51.036;6.972;2022-12-24T04:31:15;5.27;;;1.87;;
11709;SDS011;5911;51.036;6.972;2022-12-24T04:33:44;6.73;;;1.63;;
11709;SDS011;5911;51.036;6.972;2022-12-24T04:36:12;8.73;;;2.30;;
11709;SDS011;5911;51.036;6.972;2022-12-24T04:38:42;10.03;;;2.13;;
11709;SDS011;5911;51.036;6.972;2022-12-24T04:41:11;9.27;;;2.20;;
11709;SDS011;5911;51.036;6.972;2022-12-24T04:43:51;5.90;;;2.07;;
11709;SDS011;5911;51.036;6.972;2022-12-24T04:46:20;10.00;;;2.00;;
11709;SDS011;5911;51.036;6.972;2022-12-24T04:48:51;7.50;;;2.10;;
11709;SDS011;5911;51.036;6.972;2022-12-24T04:51:20;7.60;;;2.40;;
11709;SDS011;5911;51.036;6.972;2022-12-24T04:53:48;9.50;;;2.40;;
11709;SDS011;5911;51.036;6.972;2022-12-24T04:56:18;9.63;;;2.30;;
11709;SDS011;5911;51.036;6.972;2022-12-24T04:58:47;11.30;;;2.00;;
11709;SDS011;5911;51.036;6.972;2022-12-24T05:01:18;13.40;;;3.40;;
11709;SDS011;5911;51.036;6.972;2022-12-24T05:03:47;6.03;;;2.20;;
11709;SDS011;5911;51.036;6.972;2022-12-24T05:06:16;7.87;;;2.80;;
11709;SDS011;5911;51.036;6.972;2022-12-24T05:08:45;8.13;;;2.43;;
11709;SDS011;5911;51.036;6.972;2022-12-24T05:11:13;10.93;;;2.87;;
11709;SDS011;5911;51.036;6.972;2022-12-24T05:13:41;8.80;;;2.60;;
11709;SDS011;5911;51.036;6.972;2022-12-24T05:16:13;9.30;;;2.90;;
11709;SDS011;5911;51.036;6.972;2022-12-24T05:18:43;11.63;;;3.17;;
11709;SDS011;5911;51.036;6.972;2022-12-24T05:21:12;11.13;;;2.90;;
11709;SDS011;5911;51.036;6.972;2022-12-24T05:23:42;8.60;;;2.47;;
11709;SDS011;5911;51.036;6.972;2022-12-24T05:26:34;11.43;;;2.50;;
11709;SDS011;5911;51.036;6.972;2022-12-24T05:29:04;6.60;;;2.30;;
11709;SDS011;5911;51.036;6.972;2022-12-24T05:31:33;12.73;;;3.10;;
11709;SDS011;5911;51.036;6.972;2022-12-24T05:34:03;10.03;;;2.67;;
11709;SDS011;5911;51.036;6.972;2022-12-24T05:36:31;10.97;;;2.97;;
11709;SDS011;5911;51.036;6.972;2022-12-24T05:38:59;11.07;;;3.17;;
11709;SDS011;5911;51.036;6.972;2022-12-24T05:41:27;12.13;;;3.30;;
11709;SDS011;5911;51.036;6.972;2022-12-24T05:43:55;10.33;;;2.80;;
11709;SDS011;5911;51.036;6.972;2022-12-24T05:46:23;11.87;;;3.17;;
11709;SDS011;5911;51.036;6.972;2022-12-24T05:48:52;10.43;;;2.73;;
11709;SDS011;5911;51.036;6.972;2022-12-24T05:51:21;9.73;;;2.63;;
11709;SDS011;5911;51.036;6.972;2022-12-24T05:53:50;9.87;;;2.67;;
11709;SDS011;5911;51.036;6.972;2022-12-24T05:56:19;8.37;;;2.93;;
11709;SDS011;5911;51.036;6.972;2022-12-24T05:58:47;8.83;;;2.50;;
11709;SDS011;5911;51.036;6.972;2022-12-24T06:01:15;10.77;;;2.93;;
11709;SDS011;5911;51.036;6.972;2022-12-24T06:03:52;8.63;;;3.07;;
11709;SDS011;5911;51.036;6.972;2022-12-24T06:06:22;7.67;;;3.00;;
11709;SDS011;5911;51.036;6.972;2022-12-24T06:08:52;10.67;;;2.33;;
11709;SDS011;5911;51.036;6.972;2022-12-24T06:11:22;9.60;;;2.43;;
11709;SDS011;5911;51.036;6.972;2022-12-24T06:13:51;11.87;;;2.60;;
11709;SDS011;5911;51.036;6.972;2022-12-24T06:16:20;10.43;;;2.87;;
11709;SDS011;5911;51.036;6.972;2022-12-24T06:18:48;10.83;;;2.80;;
11709;SDS011;5911;51.036;6.972;2022-12-24T06:21:16;7.33;;;2.63;;
11709;SDS011;5911;51.036;6.972;2022-12-24T06:23:46;9.33;;;2.53;;
11709;SDS011;5911;51.036;6.972;2022-12-24T06:26:15;11.63;;;3.30;;
11709;SDS011;5911;51.036;6.972;2022-12-24T06:28:45;10.73;;;3.20;;
11709;SDS011;5911;51.036;6.972;2022-12-24T06:31:15;14.90;;;3.93;;
11709;SDS011;5911;51.036;6.972;2022-12-24T06:33:47;13.03;;;3.60;;
11709;SDS011;5911;51.036;6.972;2022-12-24T06:36:16;13.33;;;3.60;;
11709;SDS011;5911;51.036;6.972;2022-12-24T06:38:55;12.50;;;3.27;;
11709;SDS011;5911;51.036;6.972;2022-12-24T06:41:23;14.20;;;4.20;;
11709;SDS011;5911;51.036;6.972;2022-12-24T06:43:51;11.97;;;3.60;;
11709;SDS011;5911;51.036;6.972;2022-12-24T06:46:19;18.50;;;4.00;;
11709;SDS011;5911;51.036;6.972;2022-12-24T06:48:48;11.33;;;3.57;;
11709;SDS011;5911;51.036;6.972;2022-12-24T06:51:16;11.37;;;3.90;;
11709;SDS011;5911;51.036;6.972;2022-12-24T06:53:45;13.30;;;3.73;;
11709;SDS011;5911;51.036;6.972;2022-12-24T06:56:17;10.73;;;3.90;;
11709;SDS011;5911;51.036;6.972;2022-12-24T06:58:46;18.40;;;4.43;;
11709;SDS011;5911;51.036;6.972;2022-12-24T07:01:17;16.93;;;4.60;;
11709;SDS011;5911;51.036;6.972;2022-12-24T07:03:47;23.70;;;4.50;;
11709;SDS011;5911;51.036;6.972;2022-12-24T07:06:16;12.03;;;3.83;;
11709;SDS011;5911;51.036;6.972;2022-12-24T07:08:46;25.00;;;4.83;;
11709;SDS011;5911;51.036;6.972;2022-12-24T07:11:14;16.47;;;4.57;;
11709;SDS011;5911;51.036;6.972;2022-12-24T07:13:47;18.00;;;4.70;;
11709;SDS011;5911;51.036;6.972;2022-12-24T07:16:15;17.60;;;4.20;;
11709;SDS011;5911;51.036;6.972;2022-12-24T07:18:44;17.73;;;4.37;;
11709;SDS011;5911;51.036;6.972;2022-12-24T07:21:14;17.73;;;4.70;;
11709;SDS011;5911;51.036;6.972;2022-12-24T07:23:43;19.33;;;4.67;;
11709;SDS011;5911;51.036;6.972;2022-12-24T07:26:12;16.50;;;4.87;;
11709;SDS011;5911;51.036;6.972;2022-12-24T07:28:40;20.80;;;4.90;;
11709;SDS011;5911;51.036;6.972;2022-12-24T07:31:09;17.43;;;4.33;;
11709;SDS011;5911;51.036;6.972;2022-12-24T07:33:37;17.53;;;4.90;;
11709;SDS011;5911;51.036;6.972;2022-12-24T07:36:06;20.27;;;4.33;;
11709;SDS011;5911;51.036;6.972;2022-12-24T07:38:35;16.57;;;4.50;;
11709;SDS011;5911;51.036;6.972;2022-12-24T07:41:04;19.23;;;4.80;;
11709;SDS011;5911;51.036;6.972;2022-12-24T07:43:32;23.63;;;5.00;;
11709;SDS011;5911;51.036;6.972;2022-12-24T07:46:00;17.97;;;4.20;;
11709;SDS011;5911;51.036;6.972;2022-12-24T07:48:30;17.20;;;4.13;;
11709;SDS011;5911;51.036;6.972;2022-12-24T07:50:58;17.67;;;4.70;;
11709;SDS011;5911;51.036;6.972;2022-12-24T07:53:27;18.53;;;5.47;;
11709;SDS011;5911;51.036;6.972;2022-12-24T07:55:55;16.73;;;4.60;;
11709;SDS011;5911;51.036;6.972;2022-12-24T07:58:23;26.50;;;5.17;;
11709;SDS011;5911;51.036;6.972;2022-12-24T08:00:55;16.53;;;4.07;;
11709;SDS011;5911;51.036;6.972;2022-12-24T08:03:23;16.67;;;4.60;;
11709;SDS011;5911;51.036;6.972;2022-12-24T08:05:53;15.20;;;4.23;;
11709;SDS011;5911;51.036;6.972;2022-12-24T08:08:21;14.13;;;4.47;;
11709;SDS011;5911;51.036;6.972;2022-12-24T08:10:49;15.23;;;3.83;;
11709;SDS011;5911;51.036;6.972;2022-12-24T08:13:17;21.90;;;5.07;;
11709;SDS011;5911;51.036;6.972;2022-12-24T08:15:45;18.50;;;4.33;;
11709;SDS011;5911;51.036;6.972;2022-12-24T08:18:13;13.33;;;3.87;;
11709;SDS011;5911;51.036;6.972;2022-12-24T08:20:41;19.80;;;5.93;;
11709;SDS011;5911;51.036;6.972;2022-12-24T08:23:10;19.30;;;4.43;;
11709;SDS011;5911;51.036;6.972;2022-12-24T08:25:40;17.63;;;4.10;;
11709;SDS011;5911;51.036;6.972;2022-12-24T08:28:09;18.13;;;5.00;;
11709;SDS011;5911;51.036;6.972;2022-12-24T08:30:37;16.03;;;4.47;;
11709;SDS011;5911;51.036;6.972;2022-12-24T08:33:04;18.90;;;4.47;;
11709;SDS011;5911;51.036;6.972;2022-12-24T08:35:34;17.70;;;4.63;;
11709;SDS011;5911;51.036;6.972;2022-12-24T08:38:02;22.07;;;5.17;;
11709;SDS011;5911;51.036;6.972;2022-12-24T08:40:31;16.90;;;4.37;;
11709;SDS011;5911;51.036;6.972;2022-12-24T08:43:00;16.50;;;4.53;;
11709;SDS011;5911;51.036;6.972;2022-12-24T08:45:27;27.47;;;5.30;;
11709;SDS011;5911;51.036;6.972;2022-12-24T08:48:03;14.10;;;4.33;;
11709;SDS011;5911;51.036;6.972;2022-12-24T08:50:31;20.27;;;4.33;;
11709;SDS011;5911;51.036;6.972;2022-12-24T08:52:59;16.23;;;4.13;;
11709;SDS011;5911;51.036;6.972;2022-12-24T08:55:27;18.63;;;4.87;;
11709;SDS011;5911;51.036;6.972;2022-12-24T08:57:56;21.20;;;4.60;;
11709;SDS011;5911;51.036;6.972;2022-12-24T09:00:24;17.30;;;4.63;;
11709;SDS011;5911;51.036;6.972;2022-12-24T09:02:52;17.43;;;5.57;;
11709;SDS011;5911;51.036;6.972;2022-12-24T09:05:20;20.50;;;4.90;;
11709;SDS011;5911;51.036;6.972;2022-12-24T09:07:48;15.13;;;4.23;;
11709;SDS011;5911;51.036;6.972;2022-12-24T09:10:15;19.07;;;5.17;;
11709;SDS011;5911;51.036;6.972;2022-12-24T09:12:43;14.47;;;4.80;;
11709;SDS011;5911;51.036;6.972;2022-12-24T09:15:12;17.33;;;4.07;;
11709;SDS011;5911;51.036;6.972;2022-12-24T09:17:41;19.80;;;5.40;;
11709;SDS011;5911;51.036;6.972;2022-12-24T09:20:09;20.07;;;5.70;;
11709;SDS011;5911;51.036;6.972;2022-12-24T09:22:37;17.97;;;4.80;;
11709;SDS011;5911;51.036;6.972;2022-12-24T09:25:06;16.97;;;5.27;;
11709;SDS011;5911;51.036;6.972;2022-12-24T09:27:36;17.83;;;4.83;;
11709;SDS011;5911;51.036;6.972;2022-12-24T09:30:04;16.93;;;4.47;;
11709;SDS011;5911;51.036;6.972;2022-12-24T09:32:35;19.43;;;4.03;;
11709;SDS011;5911;51.036;6.972;2022-12-24T09:35:03;19.03;;;4.60;;
11709;SDS011;5911;51.036;6.972;2022-12-24T09:37:32;16.77;;;4.37;;
11709;SDS011;5911;51.036;6.972;2022-12-24T09:40:00;21.50;;;5.57;;
11709;SDS011;5911;51.036;6.972;2022-12-24T09:42:32;22.33;;;5.30;;
11709;SDS011;5911;51.036;6.972;2022-12-24T09:45:12;23.07;;;5.27;;
11709;SDS011;5911;51.036;6.972;2022-12-24T09:47:46;19.17;;;5.07;;
11709;SDS011;5911;51.036;6.972;2022-12-24T09:50:23;19.50;;;5.00;;
11709;SDS011;5911;51.036;6.972;2022-12-24T09:52:57;21.47;;;4.53;;
11709;SDS011;5911;51.036;6.972;2022-12-24T09:55:28;17.30;;;4.97;;
11709;SDS011;5911;51.036;6.972;2022-12-24T09:57:59;18.57;;;4.90;;
11709;SDS011;5911;51.036;6.972;2022-12-24T10:00:32;15.17;;;4.50;;
11709;SDS011;5911;51.036;6.972;2022-12-24T10:03:11;14.13;;;3.93;;
11709;SDS011;5911;51.036;6.972;2022-12-24T10:05:43;22.77;;;4.83;;
11709;SDS011;5911;51.036;6.972;2022-12-24T10:08:19;19.73;;;4.83;;
11709;SDS011;5911;51.036;6.972;2022-12-24T10:10:55;18.87;;;4.80;;
11709;SDS011;5911;51.036;6.972;2022-12-24T10:13:33;18.70;;;4.87;;
11709;SDS011;5911;51.036;6.972;2022-12-24T10:16:13;16.53;;;4.87;;
11709;SDS011;5911;51.036;6.972;2022-12-24T10:18:51;18.30;;;4.80;;
11709;SDS011;5911;51.036;6.972;2022-12-24T10:21:29;17.10;;;4.40;;
11709;SDS011;5911;51.036;6.972;2022-12-24T10:24:06;19.83;;;5.10;;
11709;SDS011;5911;51.036;6.972;2022-12-24T10:26:42;18.33;;;5.20;;
11709;SDS011;5911;51.036;6.972;2022-12-24T10:29:12;25.40;;;5.47;;
11709;SDS011;5911;51.036;6.972;2022-12-24T10:31:44;20.23;;;5.10;;
11709;SDS011;5911;51.036;6.972;2022-12-24T10:34:23;20.67;;;4.47;;
11709;SDS011;5911;51.036;6.972;2022-12-24T10:36:54;18.37;;;4.70;;
11709;SDS011;5911;51.036;6.972;2022-12-24T10:39:23;23.70;;;4.93;;
11709;SDS011;5911;51.036;6.972;2022-12-24T10:41:53;20.60;;;5.37;;
11709;SDS011;5911;51.036;6.972;2022-12-24T10:44:24;22.13;;;6.23;;
11709;SDS011;5911;51.036;6.972;2022-12-24T10:46:54;24.23;;;5.90;;
11709;SDS011;5911;51.036;6.972;2022-12-24T10:49:29;22.40;;;5.27;;
11709;SDS011;5911;51.036;6.972;2022-12-24T10:52:02;19.00;;;5.50;;
11709;SDS011;5911;51.036;6.972;2022-12-24T10:54:31;22.43;;;5.53;;
11709;SDS011;5911;51.036;6.972;2022-12-24T10:57:05;17.90;;;5.30;;
11709;SDS011;5911;51.036;6.972;2022-12-24T10:59:52;21.40;;;5.37;;
11709;SDS011;5911;51.036;6.972;2022-12-24T11:02:25;24.60;;;4.97;;
11709;SDS011;5911;51.036;6.972;2022-12-24T11:04:56;21.10;;;5.57;;
11709;SDS011;5911;51.036;6.972;2022-12-24T11:07:26;27.80;;;5.63;;
11709;SDS011;5911;51.036;6.972;2022-12-24T11:09:56;21.23;;;4.93;;
11709;SDS011;5911;51.036;6.972;2022-12-24T11:12:25;20.97;;;5.13;;
11709;SDS011;5911;51.036;6.972;2022-12-24T11:15:00;23.97;;;4.83;;
11709;SDS011;5911;51.036;6.972;2022-12-24T11:17:30;22.50;;;5.37;;
11709;SDS011;5911;51.036;6.972;2022-12-24T11:20:00;23.40;;;5.00;;
11709;SDS011;5911;51.036;6.972;2022-12-24T11:22:30;17.63;;;4.73;;
11709;SDS011;5911;51.036;6.972;2022-12-24T11:25:01;22.20;;;5.50;;
11709;SDS011;5911;51.036;6.972;2022-12-24T11:27:33;22.00;;;5.13;;
11709;SDS011;5911;51.036;6.972;2022-12-24T11:33:18;17.73;;;5.07;;
11709;SDS011;5911;51.036;6.972;2022-12-24T11:35:50;18.27;;;5.43;;
11709;SDS011;5911;51.036;6.972;2022-12-24T11:38:22;23.87;;;5.17;;
11709;SDS011;5911;51.036;6.972;2022-12-24T11:41:01;25.57;;;5.00;;
11709;SDS011;5911;51.036;6.972;2022-12-24T11:43:42;23.87;;;5.40;;
11709;SDS011;5911;51.036;6.972;2022-12-24T11:46:33;25.27;;;5.60;;
11709;SDS011;5911;51.036;6.972;2022-12-24T11:49:15;23.90;;;4.70;;
11709;SDS011;5911;51.036;6.972;2022-12-24T11:52:01;19.90;;;4.50;;
11709;SDS011;5911;51.036;6.972;2022-12-24T11:54:41;21.17;;;4.73;;
11709;SDS011;5911;51.036;6.972;2022-12-24T11:57:18;19.93;;;5.43;;
11709;SDS011;5911;51.036;6.972;2022-12-24T11:59:50;18.77;;;5.73;;
11709;SDS011;5911;51.036;6.972;2022-12-24T12:02:20;16.83;;;5.17;;
11709;SDS011;5911;51.036;6.972;2022-12-24T12:04:53;23.37;;;5.80;;
11709;SDS011;5911;51.036;6.972;2022-12-24T12:07:26;17.03;;;5.10;;
11709;SDS011;5911;51.036;6.972;2022-12-24T12:09:58;20.17;;;4.93;;
11709;SDS011;5911;51.036;6.972;2022-12-24T12:12:31;17.50;;;4.63;;
11709;SDS011;5911;51.036;6.972;2022-12-24T12:15:03;22.97;;;5.87;;
11709;SDS011;5911;51.036;6.972;2022-12-24T12:17:38;18.50;;;4.33;;
11709;SDS011;5911;51.036;6.972;2022-12-24T12:20:13;22.77;;;4.73;;
11709;SDS011;5911;51.036;6.972;2022-12-24T12:22:49;21.90;;;5.23;;
11709;SDS011;5911;51.036;6.972;2022-12-24T12:25:25;18.77;;;4.93;;
11709;SDS011;5911;51.036;6.972;2022-12-24T12:27:59;23.07;;;5.87;;
11709;SDS011;5911;51.036;6.972;2022-12-24T12:30:29;19.97;;;4.50;;
11709;SDS011;5911;51.036;6.972;2022-12-24T12:33:03;15.67;;;4.30;;
11709;SDS011;5911;51.036;6.972;2022-12-24T12:35:39;18.17;;;5.10;;
11709;SDS011;5911;51.036;6.972;2022-12-24T12:38:12;23.27;;;5.53;;
11709;SDS011;5911;51.036;6.972;2022-12-24T12:40:49;22.50;;;4.80;;
11709;SDS011;5911;51.036;6.972;2022-12-24T12:43:31;17.57;;;3.97;;
11709;SDS011;5911;51.036;6.972;2022-12-24T12:46:10;20.20;;;5.07;;
11709;SDS011;5911;51.036;6.972;2022-12-24T12:51:40;14.77;;;4.20;;
11709;SDS011;5911;51.036;6.972;2022-12-24T12:54:22;18.67;;;5.00;;
11709;SDS011;5911;51.036;6.972;2022-12-24T12:57:00;19.50;;;4.90;;
11709;SDS011;5911;51.036;6.972;2022-12-24T12:59:35;21.37;;;5.43;;
11709;SDS011;5911;51.036;6.972;2022-12-24T13:02:12;19.97;;;4.07;;
11709;SDS011;5911;51.036;6.972;2022-12-24T13:05:11;18.10;;;4.70;;
11709;SDS011;5911;51.036;6.972;2022-12-24T13:08:00;19.97;;;5.77;;
11709;SDS011;5911;51.036;6.972;2022-12-24T13:10:49;18.77;;;4.97;;
11709;SDS011;5911;51.036;6.972;2022-12-24T13:19:31;18.57;;;3.63;;
11709;SDS011;5911;51.036;6.972;2022-12-24T13:22:12;15.53;;;4.67;;
11709;SDS011;5911;51.036;6.972;2022-12-24T13:24:46;17.60;;;3.63;;
11709;SDS011;5911;51.036;6.972;2022-12-24T13:27:19;16.47;;;3.93;;
11709;SDS011;5911;51.036;6.972;2022-12-24T13:29:51;17.23;;;4.30;;
11709;SDS011;5911;51.036;6.972;2022-12-24T13:35:32;14.90;;;3.87;;
11709;SDS011;5911;51.036;6.972;2022-12-24T13:44:27;19.93;;;4.93;;
11709;SDS011;5911;51.036;6.972;2022-12-24T13:49:55;12.87;;;4.07;;
11709;SDS011;5911;51.036;6.972;2022-12-24T13:52:38;12.90;;;4.33;;
11709;SDS011;5911;51.036;6.972;2022-12-24T13:55:17;20.90;;;5.37;;
11709;SDS011;5911;51.036;6.972;2022-12-24T13:57:51;13.07;;;3.97;;
11709;SDS011;5911;51.036;6.972;2022-12-24T14:00:40;21.13;;;5.00;;
11709;SDS011;5911;51.036;6.972;2022-12-24T14:06:01;17.57;;;4.53;;
11709;SDS011;5911;51.036;6.972;2022-12-24T14:08:34;19.80;;;4.73;;
11709;SDS011;5911;51.036;6.972;2022-12-24T14:11:07;21.13;;;4.50;;
11709;SDS011;5911;51.036;6.972;2022-12-24T14:16:48;15.17;;;4.30;;
11709;SDS011;5911;51.036;6.972;2022-12-24T14:19:18;13.27;;;3.97;;
11709;SDS011;5911;51.036;6.972;2022-12-24T14:21:50;12.43;;;3.80;;
11709;SDS011;5911;51.036;6.972;2022-12-24T14:24:23;14.40;;;4.07;;
11709;SDS011;5911;51.036;6.972;2022-12-24T14:26:53;20.67;;;4.40;;
11709;SDS011;5911;51.036;6.972;2022-12-24T14:29:25;17.67;;;4.23;;
11709;SDS011;5911;51.036;6.972;2022-12-24T14:31:58;16.17;;;4.10;;
11709;SDS011;5911;51.036;6.972;2022-12-24T14:34:29;15.23;;;3.70;;
11709;SDS011;5911;51.036;6.972;2022-12-24T14:36:58;16.33;;;3.97;;
11709;SDS011;5911;51.036;6.972;2022-12-24T14:39:31;12.53;;;3.20;;
11709;SDS011;5911;51.036;6.972;2022-12-24T14:42:06;15.33;;;3.87;;
11709;SDS011;5911;51.036;6.972;2022-12-24T14:44:45;23.13;;;4.90;;
11709;SDS011;5911;51.036;6.972;2022-12-24T14:47:27;13.40;;;3.63;;
11709;SDS011;5911;51.036;6.972;2022-12-24T14:53:04;11.73;;;3.70;;
11709;SDS011;5911;51.036;6.972;2022-12-24T14:55:45;17.23;;;3.87;;
11709;SDS011;5911;51.036;6.972;2022-12-24T14:58:18;21.90;;;4.80;;
11709;SDS011;5911;51.036;6.972;2022-12-24T15:00:48;16.33;;;4.30;;
11709;SDS011;5911;51.036;6.972;2022-12-24T15:03:18;11.40;;;3.77;;
11709;SDS011;5911;51.036;6.972;2022-12-24T15:05:49;17.33;;;4.20;;
11709;SDS011;5911;51.036;6.972;2022-12-24T15:08:20;12.83;;;3.83;;
11709;SDS011;5911;51.036;6.972;2022-12-24T15:10:54;17.37;;;4.03;;
11709;SDS011;5911;51.036;6.972;2022-12-24T15:13:27;13.30;;;4.00;;
11709;SDS011;5911;51.036;6.972;2022-12-24T15:16:02;14.93;;;3.97;;
11709;SDS011;5911;51.036;6.972;2022-12-24T15:18:33;13.70;;;4.50;;
11709;SDS011;5911;51.036;6.972;2022-12-24T15:21:04;22.00;;;5.00;;
11709;SDS011;5911;51.036;6.972;2022-12-24T15:23:44;20.63;;;4.93;;
11709;SDS011;5911;51.036;6.972;2022-12-24T15:26:19;15.60;;;3.90;;
11709;SDS011;5911;51.036;6.972;2022-12-24T15:28:50;11.93;;;3.73;;
11709;SDS011;5911;51.036;6.972;2022-12-24T15:31:28;11.63;;;4.03;;
11709;SDS011;5911;51.036;6.972;2022-12-24T15:33:57;14.87;;;4.70;;
11709;SDS011;5911;51.036;6.972;2022-12-24T15:36:27;18.90;;;4.87;;
11709;SDS011;5911;51.036;6.972;2022-12-24T15:38:58;20.27;;;4.87;;
11709;SDS011;5911;51.036;6.972;2022-12-24T15:41:28;13.30;;;4.03;;
11709;SDS011;5911;51.036;6.972;2022-12-24T15:44:03;16.67;;;4.63;;
11709;SDS011;5911;51.036;6.972;2022-12-24T15:46:31;15.60;;;4.40;;
11709;SDS011;5911;51.036;6.972;2022-12-24T15:49:00;13.87;;;4.60;;